sensor_id;sensor_type;location;lat;lon;timestamp;P1;durP1;ratioP1;P2;durP2;ratioP2
15381;SDS011;7789;51.364;12.358;2023-04-21T00:01:33;22.30;;;17.23;;
15381;SDS011;7789;51.364;12.358;2023-04-21T00:06:37;24.30;;;17.67;;
15381;SDS011;7789;51.364;12.358;2023-04-21T00:11:42;38.20;;;19.00;;
15381;SDS011;7789;51.364;12.358;2023-04-21T00:16:47;22.30;;;17.50;;
15381;SDS011;7789;51.364;12.358;2023-04-21T00:21:53;23.00;;;18.20;;
15381;SDS011;7789;51.364;12.358;2023-04-21T00:26:59;21.50;;;17.97;;
15381;SDS011;7789;51.364;12.358;2023-04-21T00:32:06;25.63;;;18.40;;
15381;SDS011;7789;51.364;12.358;2023-04-21T00:37:10;26.63;;;18.33;;
15381;SDS011;7789;51.364;12.358;2023-04-21T00:42:14;28.23;;;18.63;;
15381;SDS011;7789;51.364;12.358;2023-04-21T00:47:20;26.73;;;18.37;;
15381;SDS011;7789;51.364;12.358;2023-04-21T00:52:24;27.20;;;18.87;;
15381;SDS011;7789;51.364;12.358;2023-04-21T00:57:29;28.77;;;20.17;;
15381;SDS011;7789;51.364;12.358;2023-04-21T01:02:35;27.33;;;20.20;;
15381;SDS011;7789;51.364;12.358;2023-04-21T01:07:44;26.43;;;19.77;;
15381;SDS011;7789;51.364;12.358;2023-04-21T01:12:52;25.93;;;19.43;;
15381;SDS011;7789;51.364;12.358;2023-04-21T01:17:57;29.53;;;20.97;;
15381;SDS011;7789;51.364;12.358;2023-04-21T01:23:02;26.53;;;19.90;;
15381;SDS011;7789;51.364;12.358;2023-04-21T01:28:09;29.43;;;20.63;;
15381;SDS011;7789;51.364;12.358;2023-04-21T01:33:13;28.93;;;19.63;;
15381;SDS011;7789;51.364;12.358;2023-04-21T01:38:18;29.47;;;19.13;;
15381;SDS011;7789;51.364;12.358;2023-04-21T01:43:23;27.10;;;18.60;;
15381;SDS011;7789;51.364;12.358;2023-04-21T01:48:27;26.53;;;19.37;;
15381;SDS011;7789;51.364;12.358;2023-04-21T01:53:33;28.70;;;19.77;;
15381;SDS011;7789;51.364;12.358;2023-04-21T01:58:36;25.80;;;18.70;;
15381;SDS011;7789;51.364;12.358;2023-04-21T02:03:41;24.43;;;16.93;;
15381;SDS011;7789;51.364;12.358;2023-04-21T02:08:48;23.43;;;18.20;;
15381;SDS011;7789;51.364;12.358;2023-04-21T02:13:52;26.33;;;16.90;;
15381;SDS011;7789;51.364;12.358;2023-04-21T02:18:56;20.53;;;15.97;;
15381;SDS011;7789;51.364;12.358;2023-04-21T02:24:02;26.20;;;16.10;;
15381;SDS011;7789;51.364;12.358;2023-04-21T02:29:08;22.80;;;16.33;;
15381;SDS011;7789;51.364;12.358;2023-04-21T02:34:14;26.23;;;16.67;;
15381;SDS011;7789;51.364;12.358;2023-04-21T02:39:19;26.47;;;16.13;;
15381;SDS011;7789;51.364;12.358;2023-04-21T02:44:22;20.53;;;15.50;;
15381;SDS011;7789;51.364;12.358;2023-04-21T02:49:26;20.90;;;15.20;;
15381;SDS011;7789;51.364;12.358;2023-04-21T02:54:31;27.97;;;16.70;;
15381;SDS011;7789;51.364;12.358;2023-04-21T02:59:35;20.87;;;15.97;;
15381;SDS011;7789;51.364;12.358;2023-04-21T03:04:41;24.47;;;15.40;;
15381;SDS011;7789;51.364;12.358;2023-04-21T03:09:46;22.23;;;15.30;;
15381;SDS011;7789;51.364;12.358;2023-04-21T03:14:50;24.07;;;15.60;;
15381;SDS011;7789;51.364;12.358;2023-04-21T03:19:53;19.57;;;14.57;;
15381;SDS011;7789;51.364;12.358;2023-04-21T03:24:58;25.50;;;15.37;;
15381;SDS011;7789;51.364;12.358;2023-04-21T03:30:02;20.60;;;14.87;;
15381;SDS011;7789;51.364;12.358;2023-04-21T03:35:07;25.13;;;14.47;;
15381;SDS011;7789;51.364;12.358;2023-04-21T03:40:13;21.83;;;13.57;;
15381;SDS011;7789;51.364;12.358;2023-04-21T03:45:18;20.70;;;13.70;;
15381;SDS011;7789;51.364;12.358;2023-04-21T03:50:23;18.33;;;12.73;;
15381;SDS011;7789;51.364;12.358;2023-04-21T03:55:28;21.00;;;13.30;;
15381;SDS011;7789;51.364;12.358;2023-04-21T04:00:45;19.90;;;12.63;;
15381;SDS011;7789;51.364;12.358;2023-04-21T04:06:09;17.93;;;12.77;;
15381;SDS011;7789;51.364;12.358;2023-04-21T04:11:16;22.10;;;13.43;;
15381;SDS011;7789;51.364;12.358;2023-04-21T04:16:21;16.70;;;11.67;;
15381;SDS011;7789;51.364;12.358;2023-04-21T04:21:25;24.27;;;12.30;;
15381;SDS011;7789;51.364;12.358;2023-04-21T04:26:30;20.27;;;12.03;;
15381;SDS011;7789;51.364;12.358;2023-04-21T04:31:36;22.40;;;13.33;;
15381;SDS011;7789;51.364;12.358;2023-04-21T04:36:42;19.63;;;11.97;;
15381;SDS011;7789;51.364;12.358;2023-04-21T04:41:49;17.20;;;11.00;;
15381;SDS011;7789;51.364;12.358;2023-04-21T04:46:53;20.50;;;13.00;;
15381;SDS011;7789;51.364;12.358;2023-04-21T04:51:57;21.17;;;11.27;;
15381;SDS011;7789;51.364;12.358;2023-04-21T04:57:03;17.50;;;11.23;;
15381;SDS011;7789;51.364;12.358;2023-04-21T05:02:10;18.47;;;10.07;;
15381;SDS011;7789;51.364;12.358;2023-04-21T05:07:14;17.27;;;10.00;;
15381;SDS011;7789;51.364;12.358;2023-04-21T05:12:20;21.23;;;10.50;;
15381;SDS011;7789;51.364;12.358;2023-04-21T05:17:24;17.93;;;11.20;;
15381;SDS011;7789;51.364;12.358;2023-04-21T05:22:29;24.30;;;10.67;;
15381;SDS011;7789;51.364;12.358;2023-04-21T05:27:37;18.73;;;10.97;;
15381;SDS011;7789;51.364;12.358;2023-04-21T05:32:41;15.00;;;9.70;;
15381;SDS011;7789;51.364;12.358;2023-04-21T05:37:46;16.23;;;8.82;;
15381;SDS011;7789;51.364;12.358;2023-04-21T05:42:54;14.63;;;8.10;;
15381;SDS011;7789;51.364;12.358;2023-04-21T05:47:59;19.13;;;8.52;;
15381;SDS011;7789;51.364;12.358;2023-04-21T05:53:06;12.70;;;8.13;;
15381;SDS011;7789;51.364;12.358;2023-04-21T05:58:14;15.20;;;8.32;;
15381;SDS011;7789;51.364;12.358;2023-04-21T06:03:19;13.18;;;8.25;;
15381;SDS011;7789;51.364;12.358;2023-04-21T06:08:24;14.75;;;7.50;;
15381;SDS011;7789;51.364;12.358;2023-04-21T06:13:29;14.45;;;7.78;;
15381;SDS011;7789;51.364;12.358;2023-04-21T06:18:39;16.67;;;9.02;;
15381;SDS011;7789;51.364;12.358;2023-04-21T06:23:43;16.20;;;7.35;;
15381;SDS011;7789;51.364;12.358;2023-04-21T06:28:48;15.45;;;7.82;;
15381;SDS011;7789;51.364;12.358;2023-04-21T06:33:51;11.88;;;7.38;;
15381;SDS011;7789;51.364;12.358;2023-04-21T06:38:55;15.80;;;7.65;;
15381;SDS011;7789;51.364;12.358;2023-04-21T06:44:02;14.38;;;7.43;;
15381;SDS011;7789;51.364;12.358;2023-04-21T06:49:05;12.95;;;7.78;;
15381;SDS011;7789;51.364;12.358;2023-04-21T06:54:09;12.10;;;6.88;;
15381;SDS011;7789;51.364;12.358;2023-04-21T06:59:15;14.07;;;6.80;;
15381;SDS011;7789;51.364;12.358;2023-04-21T07:04:20;15.88;;;7.07;;
15381;SDS011;7789;51.364;12.358;2023-04-21T07:09:30;11.75;;;6.35;;
15381;SDS011;7789;51.364;12.358;2023-04-21T07:14:36;15.70;;;6.65;;
15381;SDS011;7789;51.364;12.358;2023-04-21T07:19:40;11.63;;;6.05;;
15381;SDS011;7789;51.364;12.358;2023-04-21T07:24:44;10.40;;;5.97;;
15381;SDS011;7789;51.364;12.358;2023-04-21T07:29:51;13.45;;;6.70;;
15381;SDS011;7789;51.364;12.358;2023-04-21T07:34:54;13.80;;;5.68;;
15381;SDS011;7789;51.364;12.358;2023-04-21T07:40:00;12.30;;;5.82;;
15381;SDS011;7789;51.364;12.358;2023-04-21T07:45:06;13.93;;;6.35;;
15381;SDS011;7789;51.364;12.358;2023-04-21T07:50:10;13.13;;;5.50;;
15381;SDS011;7789;51.364;12.358;2023-04-21T07:55:15;11.95;;;5.72;;
15381;SDS011;7789;51.364;12.358;2023-04-21T08:00:22;11.13;;;4.97;;
15381;SDS011;7789;51.364;12.358;2023-04-21T08:05:26;8.90;;;5.70;;
15381;SDS011;7789;51.364;12.358;2023-04-21T08:10:34;13.93;;;6.05;;
15381;SDS011;7789;51.364;12.358;2023-04-21T08:15:39;13.77;;;6.00;;
15381;SDS011;7789;51.364;12.358;2023-04-21T08:20:42;8.52;;;5.47;;
15381;SDS011;7789;51.364;12.358;2023-04-21T08:25:47;8.70;;;6.00;;
15381;SDS011;7789;51.364;12.358;2023-04-21T08:30:54;9.02;;;4.65;;
15381;SDS011;7789;51.364;12.358;2023-04-21T08:36:01;11.95;;;5.25;;
15381;SDS011;7789;51.364;12.358;2023-04-21T08:41:18;9.70;;;4.80;;
15381;SDS011;7789;51.364;12.358;2023-04-21T08:46:25;7.75;;;4.93;;
15381;SDS011;7789;51.364;12.358;2023-04-21T08:51:30;14.00;;;5.43;;
15381;SDS011;7789;51.364;12.358;2023-04-21T08:56:34;12.60;;;5.03;;
15381;SDS011;7789;51.364;12.358;2023-04-21T09:07:29;11.25;;;4.40;;
15381;SDS011;7789;51.364;12.358;2023-04-21T09:12:36;12.00;;;4.60;;
15381;SDS011;7789;51.364;12.358;2023-04-21T09:17:43;9.60;;;3.95;;
15381;SDS011;7789;51.364;12.358;2023-04-21T09:22:47;11.85;;;4.40;;
15381;SDS011;7789;51.364;12.358;2023-04-21T09:27:52;8.95;;;4.30;;
15381;SDS011;7789;51.364;12.358;2023-04-21T09:32:58;11.27;;;4.25;;
15381;SDS011;7789;51.364;12.358;2023-04-21T09:38:02;7.15;;;4.00;;
15381;SDS011;7789;51.364;12.358;2023-04-21T09:43:07;8.35;;;3.95;;
15381;SDS011;7789;51.364;12.358;2023-04-21T09:48:14;11.70;;;3.67;;
15381;SDS011;7789;51.364;12.358;2023-04-21T09:53:23;9.55;;;3.65;;
15381;SDS011;7789;51.364;12.358;2023-04-21T09:58:30;12.98;;;3.60;;
15381;SDS011;7789;51.364;12.358;2023-04-21T10:03:40;6.32;;;2.90;;
15381;SDS011;7789;51.364;12.358;2023-04-21T10:08:47;7.20;;;2.83;;
15381;SDS011;7789;51.364;12.358;2023-04-21T10:13:54;7.50;;;3.00;;
15381;SDS011;7789;51.364;12.358;2023-04-21T10:19:00;6.65;;;2.95;;
15381;SDS011;7789;51.364;12.358;2023-04-21T10:24:04;11.07;;;2.88;;
15381;SDS011;7789;51.364;12.358;2023-04-21T10:29:09;6.32;;;2.30;;
15381;SDS011;7789;51.364;12.358;2023-04-21T10:34:15;11.35;;;2.45;;
15381;SDS011;7789;51.364;12.358;2023-04-21T10:39:24;7.35;;;2.58;;
15381;SDS011;7789;51.364;12.358;2023-04-21T10:44:29;6.75;;;2.47;;
15381;SDS011;7789;51.364;12.358;2023-04-21T10:49:36;7.90;;;2.40;;
15381;SDS011;7789;51.364;12.358;2023-04-21T10:54:41;8.10;;;2.70;;
15381;SDS011;7789;51.364;12.358;2023-04-21T10:59:47;9.23;;;2.95;;
15381;SDS011;7789;51.364;12.358;2023-04-21T11:04:53;7.15;;;2.70;;
15381;SDS011;7789;51.364;12.358;2023-04-21T11:09:58;11.63;;;3.20;;
15381;SDS011;7789;51.364;12.358;2023-04-21T11:15:04;6.03;;;2.75;;
15381;SDS011;7789;51.364;12.358;2023-04-21T11:20:12;6.70;;;2.92;;
15381;SDS011;7789;51.364;12.358;2023-04-21T11:25:15;5.28;;;1.92;;
15381;SDS011;7789;51.364;12.358;2023-04-21T11:30:20;9.52;;;2.92;;
15381;SDS011;7789;51.364;12.358;2023-04-21T11:35:25;9.00;;;3.13;;
15381;SDS011;7789;51.364;12.358;2023-04-21T11:40:44;6.65;;;3.67;;
15381;SDS011;7789;51.364;12.358;2023-04-21T11:45:48;6.82;;;2.50;;
15381;SDS011;7789;51.364;12.358;2023-04-21T11:50:54;4.43;;;2.25;;
15381;SDS011;7789;51.364;12.358;2023-04-21T11:55:59;6.88;;;2.50;;
15381;SDS011;7789;51.364;12.358;2023-04-21T12:01:06;7.13;;;2.20;;
15381;SDS011;7789;51.364;12.358;2023-04-21T12:06:18;6.78;;;2.13;;
15381;SDS011;7789;51.364;12.358;2023-04-21T12:11:23;5.47;;;2.50;;
15381;SDS011;7789;51.364;12.358;2023-04-21T12:16:27;5.30;;;2.53;;
15381;SDS011;7789;51.364;12.358;2023-04-21T12:21:35;6.35;;;2.42;;
15381;SDS011;7789;51.364;12.358;2023-04-21T12:26:40;4.82;;;3.00;;
15381;SDS011;7789;51.364;12.358;2023-04-21T12:31:44;11.82;;;2.92;;
15381;SDS011;7789;51.364;12.358;2023-04-21T12:36:49;7.97;;;2.58;;
15381;SDS011;7789;51.364;12.358;2023-04-21T12:41:53;7.18;;;2.33;;
15381;SDS011;7789;51.364;12.358;2023-04-21T12:46:58;10.30;;;2.45;;
15381;SDS011;7789;51.364;12.358;2023-04-21T12:52:04;3.35;;;2.08;;
15381;SDS011;7789;51.364;12.358;2023-04-21T12:57:10;8.23;;;2.60;;
15381;SDS011;7789;51.364;12.358;2023-04-21T13:02:14;2.65;;;1.83;;
15381;SDS011;7789;51.364;12.358;2023-04-21T13:07:21;6.47;;;1.75;;
15381;SDS011;7789;51.364;12.358;2023-04-21T13:12:27;7.05;;;2.03;;
15381;SDS011;7789;51.364;12.358;2023-04-21T13:17:32;5.05;;;2.22;;
15381;SDS011;7789;51.364;12.358;2023-04-21T13:22:37;6.50;;;2.45;;
15381;SDS011;7789;51.364;12.358;2023-04-21T13:27:41;8.13;;;2.63;;
15381;SDS011;7789;51.364;12.358;2023-04-21T13:32:44;4.85;;;2.15;;
15381;SDS011;7789;51.364;12.358;2023-04-21T13:37:50;6.43;;;2.13;;
15381;SDS011;7789;51.364;12.358;2023-04-21T13:42:54;6.85;;;2.70;;
15381;SDS011;7789;51.364;12.358;2023-04-21T13:47:59;6.85;;;1.98;;
15381;SDS011;7789;51.364;12.358;2023-04-21T13:53:04;6.22;;;2.08;;
15381;SDS011;7789;51.364;12.358;2023-04-21T13:58:08;3.67;;;1.95;;
15381;SDS011;7789;51.364;12.358;2023-04-21T14:03:12;9.85;;;2.42;;
15381;SDS011;7789;51.364;12.358;2023-04-21T14:08:18;5.63;;;2.00;;
15381;SDS011;7789;51.364;12.358;2023-04-21T14:13:23;4.28;;;2.17;;
15381;SDS011;7789;51.364;12.358;2023-04-21T14:18:42;6.63;;;1.70;;
15381;SDS011;7789;51.364;12.358;2023-04-21T14:23:49;5.18;;;1.90;;
15381;SDS011;7789;51.364;12.358;2023-04-21T14:28:54;9.23;;;2.20;;
15381;SDS011;7789;51.364;12.358;2023-04-21T14:33:58;6.43;;;2.05;;
15381;SDS011;7789;51.364;12.358;2023-04-21T14:39:04;3.78;;;1.60;;
15381;SDS011;7789;51.364;12.358;2023-04-21T14:44:11;9.10;;;1.90;;
15381;SDS011;7789;51.364;12.358;2023-04-21T14:49:14;5.03;;;2.28;;
15381;SDS011;7789;51.364;12.358;2023-04-21T14:54:20;5.25;;;2.58;;
15381;SDS011;7789;51.364;12.358;2023-04-21T14:59:23;6.40;;;2.47;;
15381;SDS011;7789;51.364;12.358;2023-04-21T15:04:27;7.00;;;2.50;;
15381;SDS011;7789;51.364;12.358;2023-04-21T15:09:32;6.38;;;2.28;;
15381;SDS011;7789;51.364;12.358;2023-04-21T15:14:37;4.90;;;2.17;;
15381;SDS011;7789;51.364;12.358;2023-04-21T15:19:41;3.75;;;2.08;;
15381;SDS011;7789;51.364;12.358;2023-04-21T15:24:45;5.80;;;2.00;;
15381;SDS011;7789;51.364;12.358;2023-04-21T15:29:49;4.35;;;2.10;;
15381;SDS011;7789;51.364;12.358;2023-04-21T15:34:52;5.07;;;2.20;;
15381;SDS011;7789;51.364;12.358;2023-04-21T15:39:58;4.53;;;2.30;;
15381;SDS011;7789;51.364;12.358;2023-04-21T15:45:01;6.03;;;2.30;;
15381;SDS011;7789;51.364;12.358;2023-04-21T15:50:06;4.88;;;2.30;;
15381;SDS011;7789;51.364;12.358;2023-04-21T15:55:11;9.25;;;2.00;;
15381;SDS011;7789;51.364;12.358;2023-04-21T16:00:16;7.82;;;2.72;;
15381;SDS011;7789;51.364;12.358;2023-04-21T16:05:21;8.32;;;2.50;;
15381;SDS011;7789;51.364;12.358;2023-04-21T16:10:31;3.80;;;2.22;;
15381;SDS011;7789;51.364;12.358;2023-04-21T16:15:35;6.47;;;2.50;;
15381;SDS011;7789;51.364;12.358;2023-04-21T16:20:40;6.40;;;3.08;;
15381;SDS011;7789;51.364;12.358;2023-04-21T16:25:47;6.53;;;3.08;;
15381;SDS011;7789;51.364;12.358;2023-04-21T16:30:52;7.68;;;3.08;;
15381;SDS011;7789;51.364;12.358;2023-04-21T16:35:56;4.30;;;2.30;;
15381;SDS011;7789;51.364;12.358;2023-04-21T16:41:00;6.50;;;2.40;;
15381;SDS011;7789;51.364;12.358;2023-04-21T16:46:04;7.80;;;2.88;;
15381;SDS011;7789;51.364;12.358;2023-04-21T16:51:08;7.03;;;2.65;;
15381;SDS011;7789;51.364;12.358;2023-04-21T16:56:13;10.70;;;3.13;;
15381;SDS011;7789;51.364;12.358;2023-04-21T17:01:17;7.22;;;2.85;;
15381;SDS011;7789;51.364;12.358;2023-04-21T17:06:21;7.53;;;3.08;;
15381;SDS011;7789;51.364;12.358;2023-04-21T17:11:27;4.85;;;2.78;;
15381;SDS011;7789;51.364;12.358;2023-04-21T17:16:33;5.05;;;3.17;;
15381;SDS011;7789;51.364;12.358;2023-04-21T17:21:37;8.90;;;2.67;;
15381;SDS011;7789;51.364;12.358;2023-04-21T17:26:42;6.57;;;3.30;;
15381;SDS011;7789;51.364;12.358;2023-04-21T17:31:46;5.25;;;2.90;;
15381;SDS011;7789;51.364;12.358;2023-04-21T17:36:50;8.70;;;3.08;;
15381;SDS011;7789;51.364;12.358;2023-04-21T17:41:55;6.65;;;2.67;;
15381;SDS011;7789;51.364;12.358;2023-04-21T17:46:59;3.70;;;2.70;;
15381;SDS011;7789;51.364;12.358;2023-04-21T17:52:02;10.35;;;3.00;;
15381;SDS011;7789;51.364;12.358;2023-04-21T17:57:08;4.10;;;2.90;;
15381;SDS011;7789;51.364;12.358;2023-04-21T18:02:14;4.75;;;3.10;;
15381;SDS011;7789;51.364;12.358;2023-04-21T18:07:20;5.05;;;3.28;;
15381;SDS011;7789;51.364;12.358;2023-04-21T18:12:25;6.60;;;3.45;;
15381;SDS011;7789;51.364;12.358;2023-04-21T18:17:31;7.22;;;3.60;;
15381;SDS011;7789;51.364;12.358;2023-04-21T18:22:35;6.28;;;3.63;;
15381;SDS011;7789;51.364;12.358;2023-04-21T18:27:40;4.78;;;3.25;;
15381;SDS011;7789;51.364;12.358;2023-04-21T18:32:44;5.88;;;3.38;;
15381;SDS011;7789;51.364;12.358;2023-04-21T18:37:50;7.60;;;4.03;;
15381;SDS011;7789;51.364;12.358;2023-04-21T18:42:55;6.22;;;3.30;;
15381;SDS011;7789;51.364;12.358;2023-04-21T18:47:59;6.40;;;3.47;;
15381;SDS011;7789;51.364;12.358;2023-04-21T18:53:06;5.75;;;3.38;;
15381;SDS011;7789;51.364;12.358;2023-04-21T18:58:12;5.82;;;3.55;;
15381;SDS011;7789;51.364;12.358;2023-04-21T19:03:16;6.57;;;3.85;;
15381;SDS011;7789;51.364;12.358;2023-04-21T19:08:21;9.38;;;3.75;;
15381;SDS011;7789;51.364;12.358;2023-04-21T19:13:40;6.53;;;3.85;;
15381;SDS011;7789;51.364;12.358;2023-04-21T19:18:44;6.03;;;4.25;;
15381;SDS011;7789;51.364;12.358;2023-04-21T19:23:50;5.15;;;4.65;;
15381;SDS011;7789;51.364;12.358;2023-04-21T19:28:59;6.00;;;4.32;;
15381;SDS011;7789;51.364;12.358;2023-04-21T19:34:04;6.90;;;4.50;;
15381;SDS011;7789;51.364;12.358;2023-04-21T19:39:09;8.35;;;4.40;;
15381;SDS011;7789;51.364;12.358;2023-04-21T19:44:15;8.32;;;4.53;;
15381;SDS011;7789;51.364;12.358;2023-04-21T19:49:18;5.75;;;4.32;;
15381;SDS011;7789;51.364;12.358;2023-04-21T19:54:22;7.20;;;4.35;;
15381;SDS011;7789;51.364;12.358;2023-04-21T19:59:27;9.35;;;4.65;;
15381;SDS011;7789;51.364;12.358;2023-04-21T20:04:31;6.00;;;4.30;;
15381;SDS011;7789;51.364;12.358;2023-04-21T20:09:38;6.55;;;4.63;;
15381;SDS011;7789;51.364;12.358;2023-04-21T20:14:43;6.75;;;4.47;;
15381;SDS011;7789;51.364;12.358;2023-04-21T20:19:47;9.48;;;4.68;;
15381;SDS011;7789;51.364;12.358;2023-04-21T20:24:50;6.78;;;4.40;;
15381;SDS011;7789;51.364;12.358;2023-04-21T20:29:56;8.05;;;4.68;;
15381;SDS011;7789;51.364;12.358;2023-04-21T20:35:02;5.70;;;4.53;;
15381;SDS011;7789;51.364;12.358;2023-04-21T20:40:08;7.25;;;4.80;;
15381;SDS011;7789;51.364;12.358;2023-04-21T20:45:16;7.47;;;5.35;;
15381;SDS011;7789;51.364;12.358;2023-04-21T20:50:20;7.93;;;5.20;;
15381;SDS011;7789;51.364;12.358;2023-04-21T20:55:26;7.85;;;5.35;;
15381;SDS011;7789;51.364;12.358;2023-04-21T21:00:31;7.88;;;4.85;;
15381;SDS011;7789;51.364;12.358;2023-04-21T21:05:36;8.93;;;5.40;;
15381;SDS011;7789;51.364;12.358;2023-04-21T21:10:41;8.88;;;5.32;;
15381;SDS011;7789;51.364;12.358;2023-04-21T21:15:46;8.20;;;5.55;;
15381;SDS011;7789;51.364;12.358;2023-04-21T21:20:50;9.02;;;5.30;;
15381;SDS011;7789;51.364;12.358;2023-04-21T21:25:54;10.15;;;5.68;;
15381;SDS011;7789;51.364;12.358;2023-04-21T21:31:00;10.68;;;5.43;;
15381;SDS011;7789;51.364;12.358;2023-04-21T21:36:04;7.28;;;4.93;;
15381;SDS011;7789;51.364;12.358;2023-04-21T21:41:11;6.70;;;5.35;;
15381;SDS011;7789;51.364;12.358;2023-04-21T21:46:16;6.53;;;5.35;;
15381;SDS011;7789;51.364;12.358;2023-04-21T21:51:21;7.95;;;5.22;;
15381;SDS011;7789;51.364;12.358;2023-04-21T21:56:25;7.18;;;5.57;;
15381;SDS011;7789;51.364;12.358;2023-04-21T22:01:30;9.48;;;5.75;;
15381;SDS011;7789;51.364;12.358;2023-04-21T22:06:34;9.10;;;5.30;;
15381;SDS011;7789;51.364;12.358;2023-04-21T22:11:37;9.98;;;5.55;;
15381;SDS011;7789;51.364;12.358;2023-04-21T22:16:42;12.90;;;5.93;;
15381;SDS011;7789;51.364;12.358;2023-04-21T22:21:46;7.93;;;6.15;;
15381;SDS011;7789;51.364;12.358;2023-04-21T22:26:51;12.13;;;5.47;;
15381;SDS011;7789;51.364;12.358;2023-04-21T22:31:56;12.45;;;5.60;;
15381;SDS011;7789;51.364;12.358;2023-04-21T22:37:01;7.68;;;5.75;;
15381;SDS011;7789;51.364;12.358;2023-04-21T22:42:06;8.73;;;5.53;;
15381;SDS011;7789;51.364;12.358;2023-04-21T22:47:12;8.15;;;5.65;;
15381;SDS011;7789;51.364;12.358;2023-04-21T22:52:16;6.65;;;5.50;;
15381;SDS011;7789;51.364;12.358;2023-04-21T22:57:19;9.48;;;5.85;;
15381;SDS011;7789;51.364;12.358;2023-04-21T23:02:25;11.18;;;6.10;;
15381;SDS011;7789;51.364;12.358;2023-04-21T23:07:29;10.27;;;6.38;;
15381;SDS011;7789;51.364;12.358;2023-04-21T23:12:34;10.80;;;5.75;;
15381;SDS011;7789;51.364;12.358;2023-04-21T23:17:39;9.13;;;6.07;;
15381;SDS011;7789;51.364;12.358;2023-04-21T23:22:44;9.00;;;6.25;;
15381;SDS011;7789;51.364;12.358;2023-04-21T23:27:47;6.95;;;6.00;;
15381;SDS011;7789;51.364;12.358;2023-04-21T23:32:53;7.68;;;5.95;;
15381;SDS011;7789;51.364;12.358;2023-04-21T23:37:57;8.98;;;5.75;;
15381;SDS011;7789;51.364;12.358;2023-04-21T23:43:00;6.70;;;5.97;;
15381;SDS011;7789;51.364;12.358;2023-04-21T23:48:05;9.73;;;6.50;;
15381;SDS011;7789;51.364;12.358;2023-04-21T23:53:08;10.43;;;6.20;;
15381;SDS011;7789;51.364;12.358;2023-04-21T23:58:12;8.20;;;6.27;;
